Ninaview, Colorado
Current Conditions -  °F | °C
As of 12:53 PM on Wednesday 26 Nov 2014 (Local Time) from KLHX Reporting Station
Clear Clear  
Wind Chill: 38°   Ceiling: Unl
Heat Index: 43°   Visibility: 10mi
Dew Point: 23°   Wind: 8mph
Humidity: 45%   Direction: 110°ESE
Pressure: 30.22"   Gusts: NA
Location:  37.8567°N, 103.111°W
Report Text: KLHX 261953Z AUTO 11007KT 10SM CLR 06/M05 A3022 RMK AO2 SLP236 T00611050
Loading
Personal Weather Stations






























Interactive Weather Map New forecast layout! Learn more

10-Day Weather Forecast

Advertisements
Track Severe Weather on mobile